Weather at Gaines Valley Aviation Airport

Public forecast

Using degrees Fahrenheit for public forecast. Weather courtesy of forecast.io.

Closest aviation weather report (METAR) to Gaines Valley Aviation Airport

Closest report is Greater Rochester International Airport, 26.0 nm (48.1 km) ESE. Retrieved 2020/12/04 12:54 UTC (1 hour ago):

KROC 041254Z 23008KT 10SM OVC034 05/M03 A2989 RMK AO2 SLP130 T00501033

Closest aviation forecast (TAF) to Gaines Valley Aviation Airport

Closest forecast is Greater Rochester International Airport, 26.0 nm (48.1 km) ESE. Retrieved 2020/12/04 12:22 UTC (2 hours ago):

TAF KROC 041120Z 0412/0512 22009KT P6SM OVC035 FM041300 22010G20KT P6SM VCSH OVC030 FM042000 23012G22KT 6SM -SHRA SCT015 OVC025 FM042100 23009KT 4SM -SHRA BR OVC020 FM050000 24006KT P6SM OVC020 FM051000 31004KT P6SM OVC010